Dublin, CA

10:06 PM PDT on September 23, 2014 (GMT -0700)
KCADUBLI8 | Change Station
CLOSE
Current Station
Personal Weather Station
Location: Dublin, CA
Elevation: 338 ft
Nearby Weather Stations

Elev 338 ft 37.71 °N, 121.92 °W | Updated 1 minute ago

Overcast
Overcast
65.8 °F
Feels Like 65.8 °F
N
6.9
Wind Variable Wind from West
Gusts 10.1 mph

Today
High -- | Low -- °F
--% Chance of Precip.
Yesterday
High -- | Low -- °F
Precip. -- in
6:56 AM 7:02 PM
Waning Crescent, 0% visible
Pressure 29.95 in
Visibility 10.0 miles
Clouds Overcast 1000 ft
Dew Point 62 °F
Humidity 88%
Rainfall 0.00 in
Snow Depth 0 in , 0 in , 0 in
UV 0 out of 12
Pollen 3.80 out of 12
PM2.5 Good
Flu Activity Not available.
METAR KLVK 240453Z 26010KT 10SM OVC010 19/17 A2995 RMK AO2 CIG 009V013 SLP141 T01890167

More Conditions Fewer Conditions

Pressure 29.95 in
Visibility 10.0 miles
Clouds Overcast 1000 ft
Dew Point 62 °F
Humidity 88%
Rainfall 0.00 in
Snow Depth 0 in , 0 in , 0 in
UV 0 out of 12
Pollen 3.80 out of 12
PM2.5 Good
Flu Activity Not available.
METAR KLVK 240453Z 26010KT 10SM OVC010 19/17 A2995 RMK AO2 CIG 009V013 SLP141 T01890167

More Conditions Fewer Conditions

10-Day Weather Forecast

Almanac

Astronomy

Sep. 23, 2014 Rise Set
Actual Time 6:56 AM PDT 7:02 PM PDT
Civil Twilight 6:30 AM PDT 7:29 PM PDT
Nautical Twilight 5:59 AM PDT 7:59 PM PDT
Astronomical Twilight 5:28 AM PDT 8:30 PM PDT
Moon 6:25 AM PDT (9/23) 6:45 PM PDT (9/23)
Length of Visible Light 12h 58m
Length of Day
12h 06m
Tomorrow will be 2m 25s shorter.
Waning Crescent, 0% of the Moon is Illuminated
Sep 24
Waning Crescent
Sep 24
New
Oct 1
First Quarter
Oct 8
Full
Oct 15
Last Quarter

Yesterday's Extremes

State Highs State Lows

Community

WunderPhotos

Upload Photos

1,755,891 photos uploaded!

WunderBlogs® & News

Nearby

Air Quality

  Air Quality AQ Index Pollutant
Yesterday Good
OZONE
Yesterday Good
PM2.5
Current Good
PM2.5
Tuesday Good
OZONE
Wednesday Good
OZONE
Thursday Good
OZONE
Friday Good
OZONE
Saturday Good
OZONE
Sunday Good
OZONE

Snow Depth

Station Depth Elevation
Monitor Pass 0 in 8350 ft
Leavitt Meadows 0 in 7200 ft
Adin Mountain 0 in 6200 ft
Forestdale Creek 0 in 8029 ft
Tahoe City Cross 0 in 6750 ft

Earthquake Activity

City Distance Mag. Time & Date
Yountville, California 49 miles 2.6 1:17 PM PDT
2014-09-21
Minimum magnitude displayed is 2.5.

Coastal Water Temperatures

Place Temperature
No Stations Reporting

Nearby Weather Stations